Airfield :
LOGIN :

Register | Disclaimer

   EN    FR    IT 

 










Legend :    VFR   Marginal VFR   IFR   Intensive IFR   Very Intensive IFR
Visi :
Ceiling :
>= 8 km
>= 3000ft
5 to 8 km
1000 to 3000 ft
1500m to 5 km
500 to 1000 ft
800 to 1500m
200 to 500 ft
< 800m
< 200 ft
Symbols :   Thunderstorms  Fog  Heavy snow  Heavy precipitations  Wind > 20 kt
SIGMETs :     Misc.  Thunderstorms  Icing  Turbulence  Mountain Waves  Volcanic Ashes






- Airport Elevation : 526 ft
- IATA code : LTN


EGGW - London Luton

CURRENT METAR :
  • 021320Z 02009KT 350V060 0800 R07/P1500N FG OVC002 05/04 Q1025

EXPIRED METARs :
  • 021250Z 01007KT 340V070 0800 R07/P1500N FG OVC001 04/04 Q1025
  • 021220Z AUTO 02008KT 340V110 0800 R07/1100D FG OVC001 04/04 Q1025
  • 021150Z AUTO 01008KT 1900 R07/1400N BR OVC001 04/04 Q1025
  • 021120Z 02007KT 0550 R07/0650D FG OVC001 04/04 Q1026
  • 021050Z 01007KT 350V070 1000 R07/1300D BR OVC001 04/04 Q1026

TAF AMD TAF EGGW
Valid from the 02 at 12:00 until the 03 at 12:00 UTC


021203Z 0212/0312 02008KT 1400 BR BKN001
BECMG 0212/0215 9999 NSW FEW004
PROB30
TEMPO 0215/0220 8000 SHRA BKN004
PROB30
TEMPO 0306/0312 BKN008
ATIS : +44 1582 395 204



MET'MAP, your aeronautical weather chart ! - Copyright ORBIFLY December 2007 - Disclaimer

ORBIFLY MET'MAP TEAM :

Programming & Development : Alexandra Zaïnal
Original concept : Baudouin d'Aumeries
Technical & hardware support : Manuel Goepfert
Assistance : Marc-Olivier Méhu




SOURCES & CREDITS :

   NOAA